createdAt,value
2017-12-05T00:00:54.451Z,0.60
2017-12-05T00:03:22.470Z,0.77
2017-12-05T00:05:51.025Z,4.20
2017-12-05T00:08:20.062Z,0.70
2017-12-05T00:10:48.329Z,0.70
2017-12-05T00:13:16.637Z,0.60
2017-12-05T00:15:44.922Z,1.37
2017-12-05T00:18:13.494Z,0.80
2017-12-05T00:20:41.743Z,1.13
2017-12-05T00:23:10.022Z,0.70
2017-12-05T00:25:38.307Z,0.70
2017-12-05T00:28:06.573Z,1.27
2017-12-05T00:30:35.190Z,0.67
2017-12-05T00:33:03.458Z,0.80
2017-12-05T00:35:31.708Z,0.80
2017-12-05T00:38:00.084Z,5.67
2017-12-05T00:40:29.100Z,0.80
2017-12-05T00:42:57.716Z,0.70
2017-12-05T00:45:25.986Z,1.13
2017-12-05T00:47:54.251Z,1.33
2017-12-05T00:50:22.537Z,1.10
2017-12-05T00:52:50.859Z,0.80
2017-12-05T00:55:19.501Z,0.60
2017-12-05T00:57:47.779Z,0.80
2017-12-05T01:00:16.084Z,0.70
2017-12-05T01:02:44.392Z,0.70
2017-12-05T01:05:13.444Z,2.20
2017-12-05T01:07:41.945Z,0.70
2017-12-05T01:10:11.055Z,4.17
2017-12-05T01:12:40.147Z,0.70
2017-12-05T01:15:09.197Z,0.70
2017-12-05T01:17:37.475Z,0.70
2017-12-05T01:20:06.028Z,0.80
2017-12-05T01:22:34.280Z,0.63
2017-12-05T01:25:02.535Z,0.77
2017-12-05T01:27:30.843Z,0.60
2017-12-05T01:29:59.876Z,0.63
2017-12-05T01:32:28.168Z,0.60
2017-12-05T01:34:56.432Z,3.53
2017-12-05T01:37:24.758Z,0.73
2017-12-05T01:39:53.013Z,0.60
2017-12-05T01:42:21.604Z,4.17
2017-12-05T01:44:49.857Z,1.00
2017-12-05T01:47:18.120Z,0.70
2017-12-05T01:49:46.420Z,0.60
2017-12-05T01:52:14.836Z,0.90
2017-12-05T01:54:44.169Z,0.60
2017-12-05T01:57:12.445Z,0.77
2017-12-05T01:59:40.724Z,1.60
2017-12-05T02:02:09.002Z,0.87
2017-12-05T02:04:38.044Z,7.20
2017-12-05T02:07:06.729Z,4.27
2017-12-05T02:09:34.998Z,6.97
2017-12-05T02:12:03.262Z,6.73
2017-12-05T02:14:31.535Z,10.60
2017-12-05T02:16:59.793Z,9.93
2017-12-05T02:19:28.416Z,10.20
2017-12-05T02:21:56.670Z,5.93
2017-12-05T02:24:24.922Z,5.80
2017-12-05T02:26:53.777Z,9.23
2017-12-05T02:29:22.035Z,5.47
2017-12-05T02:31:51.318Z,8.20
2017-12-05T02:34:19.565Z,6.13
2017-12-05T02:36:47.847Z,6.30
2017-12-05T02:39:16.888Z,9.37
2017-12-05T02:41:45.164Z,8.37
2017-12-05T02:44:13.440Z,8.30
2017-12-05T02:46:41.718Z,9.97
2017-12-05T02:49:10.022Z,5.80
2017-12-05T02:51:38.263Z,8.23
2017-12-05T02:54:06.539Z,9.13
2017-12-05T02:56:34.837Z,7.33
2017-12-05T02:59:03.126Z,9.50
2017-12-05T03:01:31.403Z,12.73
2017-12-05T03:03:59.689Z,10.93
2017-12-05T03:06:27.981Z,4.50
2017-12-05T03:08:57.010Z,6.00
2017-12-05T03:11:25.565Z,4.80
2017-12-05T03:13:54.591Z,4.87
2017-12-05T03:16:22.859Z,11.67
2017-12-05T03:18:51.134Z,9.00
2017-12-05T03:21:19.477Z,6.03
2017-12-05T03:23:47.751Z,10.20
2017-12-05T03:26:16.008Z,4.23
2017-12-05T03:28:44.611Z,7.13
2017-12-05T03:31:12.885Z,6.33
2017-12-05T03:33:41.929Z,6.10
2017-12-05T03:36:10.240Z,7.03
2017-12-05T03:38:38.507Z,5.70
2017-12-05T03:41:06.792Z,9.87
2017-12-05T03:43:35.055Z,6.77
2017-12-05T03:46:03.630Z,4.67
2017-12-05T03:48:31.868Z,4.40
2017-12-05T03:51:00.901Z,8.00
2017-12-05T03:53:29.168Z,5.80
2017-12-05T03:55:57.420Z,5.43
2017-12-05T03:58:25.957Z,5.13
2017-12-05T04:00:54.219Z,5.77
2017-12-05T04:03:22.484Z,0.70
2017-12-05T04:05:50.786Z,0.60
2017-12-05T04:08:19.063Z,0.70
2017-12-05T04:10:47.332Z,0.60
2017-12-05T04:13:16.357Z,0.67
2017-12-05T04:15:45.101Z,0.70
2017-12-05T04:18:13.365Z,0.60
2017-12-05T04:20:42.415Z,0.60
2017-12-05T04:23:10.815Z,4.10
2017-12-05T04:25:39.079Z,0.70
2017-12-05T04:28:07.356Z,0.60
2017-12-05T04:30:35.616Z,0.60
2017-12-05T04:33:04.352Z,0.77
2017-12-05T04:35:33.368Z,0.60
2017-12-05T04:38:01.620Z,3.30
2017-12-05T04:40:30.676Z,0.70
2017-12-05T04:42:58.953Z,0.77
2017-12-05T04:45:27.480Z,0.73
2017-12-05T04:47:56.500Z,0.67
2017-12-05T04:50:24.780Z,0.70
2017-12-05T04:52:53.082Z,0.60
2017-12-05T04:55:21.350Z,4.30
2017-12-05T04:57:49.631Z,0.80
2017-12-05T05:00:17.952Z,0.70
2017-12-05T05:02:46.493Z,0.60
2017-12-05T05:05:14.761Z,0.60
2017-12-05T05:07:43.039Z,0.70
2017-12-05T05:10:11.322Z,4.93
2017-12-05T05:12:39.602Z,0.73
2017-12-05T05:15:08.154Z,0.60
2017-12-05T05:17:36.426Z,0.80
2017-12-05T05:20:05.456Z,1.10
2017-12-05T05:22:33.783Z,8.43
2017-12-05T05:25:02.049Z,0.80
2017-12-05T05:27:30.360Z,4.50
2017-12-05T05:29:58.630Z,1.10
2017-12-05T05:32:27.996Z,0.90
2017-12-05T05:34:56.256Z,0.80
2017-12-05T05:37:24.513Z,0.90
2017-12-05T05:39:53.392Z,1.00
2017-12-05T05:42:21.674Z,1.10
2017-12-05T05:44:49.967Z,0.70
2017-12-05T05:47:18.229Z,0.70
2017-12-05T05:49:47.527Z,0.73
2017-12-05T05:52:15.804Z,1.37
2017-12-05T05:54:44.052Z,1.37
2017-12-05T05:57:12.347Z,0.97
2017-12-05T05:59:41.368Z,6.43
2017-12-05T06:02:09.646Z,2.37
2017-12-05T06:04:38.002Z,4.67
2017-12-05T06:07:07.041Z,3.83
2017-12-05T06:09:35.444Z,3.43
2017-12-05T06:12:03.688Z,4.57
2017-12-05T06:14:33.523Z,3.80
2017-12-05T06:17:01.785Z,4.50
2017-12-05T06:19:30.081Z,4.30
2017-12-05T06:21:58.346Z,6.77
2017-12-05T06:24:27.055Z,8.43
2017-12-05T06:26:55.303Z,4.67
2017-12-05T06:29:23.588Z,6.77
2017-12-05T06:31:52.625Z,8.90
2017-12-05T06:34:21.674Z,9.20
2017-12-05T06:36:49.937Z,4.90
2017-12-05T06:39:18.210Z,4.90
2017-12-05T06:41:46.552Z,8.83
2017-12-05T06:44:16.714Z,4.63
2017-12-05T06:46:45.029Z,11.63
2017-12-05T06:49:13.321Z,7.07
2017-12-05T06:51:41.613Z,6.63
2017-12-05T06:54:11.021Z,9.73
2017-12-05T06:56:39.262Z,7.47
2017-12-05T06:59:07.528Z,7.20
2017-12-05T07:01:36.661Z,6.43
2017-12-05T07:04:04.940Z,7.00
2017-12-05T07:06:33.241Z,6.70
2017-12-05T07:09:02.267Z,5.90
2017-12-05T07:11:31.007Z,6.70
2017-12-05T07:13:59.277Z,8.00
2017-12-05T07:16:27.548Z,6.00
2017-12-05T07:18:55.838Z,4.00
2017-12-05T07:21:24.090Z,5.73
2017-12-05T07:23:52.389Z,15.13
2017-12-05T07:26:21.429Z,8.00
2017-12-05T07:28:50.113Z,5.43
2017-12-05T07:31:18.367Z,7.77
2017-12-05T07:33:46.632Z,9.77
2017-12-05T07:36:14.902Z,8.50
2017-12-05T07:38:43.170Z,7.33
2017-12-05T07:41:11.478Z,8.20
2017-12-05T07:43:40.594Z,9.00
2017-12-05T07:46:09.225Z,7.53
2017-12-05T07:48:37.485Z,9.87
2017-12-05T07:51:05.746Z,12.10
2017-12-05T07:53:34.021Z,14.20
2017-12-05T07:56:02.311Z,9.00
2017-12-05T07:58:30.642Z,11.40
2017-12-05T08:00:59.657Z,8.73
2017-12-05T08:03:28.317Z,6.30
2017-12-05T08:05:56.570Z,7.83
2017-12-05T08:08:25.177Z,9.67
2017-12-05T08:10:53.610Z,10.07
2017-12-05T08:13:21.869Z,7.00
2017-12-05T08:15:50.201Z,8.47
2017-12-05T08:18:18.461Z,6.87
2017-12-05T08:20:47.145Z,7.93
2017-12-05T08:23:15.494Z,7.30
2017-12-05T08:25:43.752Z,9.70
2017-12-05T08:28:12.076Z,13.13
2017-12-05T08:30:40.378Z,9.20
2017-12-05T08:33:08.993Z,11.70
2017-12-05T08:35:37.268Z,10.23
2017-12-05T08:38:06.621Z,9.43
2017-12-05T08:40:34.901Z,10.60
2017-12-05T08:43:03.160Z,9.00
2017-12-05T08:45:31.520Z,9.33
2017-12-05T08:47:59.798Z,6.63
2017-12-05T08:50:28.085Z,12.20
2017-12-05T08:52:56.356Z,6.47
2017-12-05T08:55:24.978Z,8.47
2017-12-05T08:57:53.239Z,8.50
2017-12-05T09:00:21.556Z,8.77
2017-12-05T09:02:49.853Z,13.40
2017-12-05T09:05:18.886Z,8.33
2017-12-05T09:07:47.185Z,10.00
2017-12-05T09:10:15.481Z,10.53
2017-12-05T09:12:44.064Z,9.80
2017-12-05T09:15:12.393Z,10.20
2017-12-05T09:17:40.647Z,11.70
2017-12-05T09:20:09.703Z,17.33
2017-12-05T09:22:38.009Z,14.43
2017-12-05T09:25:07.068Z,10.77
2017-12-05T09:27:35.335Z,17.70
2017-12-05T09:30:04.676Z,16.93
2017-12-05T09:32:33.716Z,17.27
2017-12-05T09:35:02.769Z,11.00
2017-12-05T09:37:31.070Z,15.73
2017-12-05T09:39:59.340Z,17.97
2017-12-05T09:42:28.398Z,10.37
2017-12-05T09:44:56.665Z,15.13
2017-12-05T09:47:25.238Z,12.23
2017-12-05T09:49:54.253Z,11.10
2017-12-05T09:52:22.547Z,12.83
2017-12-05T09:54:50.843Z,16.57
2017-12-05T09:57:19.887Z,20.50
2017-12-05T09:59:48.177Z,12.73
2017-12-05T10:02:16.454Z,14.80
2017-12-05T10:04:45.976Z,12.07
2017-12-05T10:07:14.250Z,15.90
2017-12-05T10:09:42.558Z,17.97
2017-12-05T10:12:11.621Z,12.70
2017-12-05T10:14:39.884Z,9.83
2017-12-05T10:17:08.188Z,14.77
2017-12-05T10:19:36.454Z,12.30
2017-12-05T10:22:05.039Z,12.93
2017-12-05T10:24:33.305Z,16.67
2017-12-05T10:27:01.569Z,13.90
2017-12-05T10:29:29.866Z,16.43
2017-12-05T10:31:58.136Z,13.23
2017-12-05T10:34:26.456Z,18.40
2017-12-05T10:36:54.716Z,15.93
2017-12-05T10:39:23.272Z,17.63
2017-12-05T10:41:51.588Z,14.00
2017-12-05T10:44:19.832Z,14.47
2017-12-05T10:46:48.146Z,15.60
2017-12-05T10:49:16.396Z,15.63
2017-12-05T10:51:44.791Z,12.87
2017-12-05T10:54:13.044Z,15.70
2017-12-05T10:56:41.725Z,17.83
2017-12-05T10:59:10.049Z,14.63
2017-12-05T11:01:39.082Z,11.83
2017-12-05T11:04:07.380Z,17.27
2017-12-05T11:06:35.666Z,15.70
2017-12-05T11:09:03.962Z,17.27
2017-12-05T11:11:32.244Z,16.80
2017-12-05T11:14:00.794Z,11.80
2017-12-05T11:16:29.064Z,15.40
2017-12-05T11:18:57.349Z,14.10
2017-12-05T11:21:26.810Z,11.10
2017-12-05T11:23:55.093Z,13.20
2017-12-05T11:26:23.392Z,15.10
2017-12-05T11:28:51.668Z,14.53
2017-12-05T11:31:20.225Z,8.60
2017-12-05T11:33:49.240Z,7.43
2017-12-05T11:36:17.506Z,9.97
2017-12-05T11:38:46.572Z,13.57
2017-12-05T11:41:14.828Z,16.00
2017-12-05T11:43:43.125Z,10.87
2017-12-05T11:46:11.409Z,11.30
2017-12-05T11:48:39.967Z,10.23
2017-12-05T11:51:08.232Z,11.17
2017-12-05T11:53:36.610Z,8.33
2017-12-05T11:56:04.883Z,11.80
2017-12-05T11:58:33.168Z,8.07
2017-12-05T12:01:02.032Z,6.70
2017-12-05T12:03:30.300Z,8.73
2017-12-05T12:05:59.616Z,9.47
2017-12-05T12:08:27.926Z,10.23
2017-12-05T12:10:56.173Z,7.93
2017-12-05T12:13:24.478Z,8.60
2017-12-05T12:15:53.508Z,10.80
2017-12-05T12:18:21.799Z,9.50
2017-12-05T12:20:50.052Z,10.93
2017-12-05T12:23:18.729Z,10.57
2017-12-05T12:25:47.007Z,12.80
2017-12-05T12:28:15.285Z,14.57
2017-12-05T12:30:43.617Z,11.93
2017-12-05T12:33:11.894Z,8.87
2017-12-05T12:35:40.202Z,11.00
2017-12-05T12:38:08.502Z,12.27
2017-12-05T12:40:37.206Z,12.53
2017-12-05T12:43:05.467Z,9.60
2017-12-05T12:45:33.709Z,10.43
2017-12-05T12:48:02.022Z,12.63
2017-12-05T12:50:30.270Z,13.40
2017-12-05T12:52:58.566Z,12.07
2017-12-05T12:55:26.824Z,10.30
2017-12-05T12:57:55.540Z,16.70
2017-12-05T13:00:23.805Z,9.03
2017-12-05T13:02:52.081Z,13.20
2017-12-05T13:05:20.397Z,8.60
2017-12-05T13:07:48.657Z,14.60
2017-12-05T13:10:17.210Z,13.77
2017-12-05T13:12:45.481Z,9.87
2017-12-05T13:15:13.898Z,14.60
2017-12-05T13:17:42.498Z,15.20
2017-12-05T13:20:10.769Z,11.97
2017-12-05T13:22:39.138Z,16.37
2017-12-05T13:25:07.424Z,13.17
2017-12-05T13:27:35.696Z,15.37
2017-12-05T13:30:03.980Z,15.20
2017-12-05T13:32:32.285Z,12.00
2017-12-05T13:35:00.554Z,16.63
2017-12-05T13:37:29.204Z,19.33
2017-12-05T13:39:57.468Z,14.17
2017-12-05T13:42:25.735Z,17.90
2017-12-05T13:44:54.018Z,16.67
2017-12-05T13:47:22.280Z,14.77
2017-12-05T13:49:50.576Z,15.50
2017-12-05T13:52:18.857Z,18.97
2017-12-05T13:54:47.550Z,16.13
2017-12-05T13:57:15.825Z,19.30
2017-12-05T13:59:44.096Z,20.00
2017-12-05T14:02:12.421Z,17.30
2017-12-05T14:04:41.476Z,14.57
2017-12-05T14:07:10.129Z,13.70
2017-12-05T14:09:38.400Z,14.10
2017-12-05T14:12:06.959Z,16.27
2017-12-05T14:14:35.225Z,20.17
2017-12-05T14:17:03.530Z,16.43
2017-12-05T14:19:32.569Z,14.70
2017-12-05T14:22:01.274Z,12.00
2017-12-05T14:24:29.570Z,17.40
2017-12-05T14:26:58.618Z,21.47
2017-12-05T14:29:27.867Z,12.57
2017-12-05T14:31:56.208Z,12.33
2017-12-05T14:34:24.482Z,14.50
2017-12-05T14:36:52.786Z,12.93
2017-12-05T14:39:21.064Z,14.67
2017-12-05T14:41:49.342Z,16.33
2017-12-05T14:44:17.609Z,13.43
2017-12-05T14:46:46.180Z,13.97
2017-12-05T14:49:14.460Z,16.00
2017-12-05T14:51:42.753Z,12.50
2017-12-05T14:54:11.190Z,18.33
2017-12-05T14:56:39.497Z,12.73
2017-12-05T14:59:07.989Z,19.40
2017-12-05T15:01:36.254Z,13.73
2017-12-05T15:04:04.849Z,15.80
2017-12-05T15:06:35.994Z,15.10
2017-12-05T15:09:04.505Z,10.63
2017-12-05T15:11:32.789Z,17.90
2017-12-05T15:14:02.031Z,14.13
2017-12-05T15:16:31.115Z,15.70
2017-12-05T15:18:59.381Z,15.57
2017-12-05T15:21:27.943Z,14.93
2017-12-05T15:23:56.210Z,15.33
2017-12-05T15:26:24.486Z,13.10
2017-12-05T15:28:52.782Z,17.90
2017-12-05T15:31:21.811Z,16.40
2017-12-05T15:33:50.101Z,14.47
2017-12-05T15:36:18.429Z,16.57
2017-12-05T15:38:47.846Z,17.47
2017-12-05T15:41:16.882Z,17.00
2017-12-05T15:43:45.177Z,15.13
2017-12-05T15:46:13.508Z,14.43
2017-12-05T15:48:42.584Z,18.33
2017-12-05T15:51:12.575Z,16.67
2017-12-05T15:53:40.876Z,25.43
2017-12-05T15:56:09.920Z,19.00
2017-12-05T15:58:38.216Z,16.60
2017-12-05T16:01:06.489Z,17.83
2017-12-05T16:03:34.795Z,17.10
2017-12-05T16:06:03.060Z,13.63
2017-12-05T16:08:32.125Z,12.73
2017-12-05T16:11:00.399Z,17.60
2017-12-05T16:13:29.007Z,20.17
2017-12-05T16:15:57.276Z,14.80
2017-12-05T16:18:25.538Z,15.57
2017-12-05T16:20:54.741Z,17.53
2017-12-05T16:23:23.037Z,20.50
2017-12-05T16:25:51.336Z,18.27
2017-12-05T16:28:19.634Z,17.17
2017-12-05T16:30:49.009Z,13.30
2017-12-05T16:33:17.279Z,20.37
2017-12-05T16:35:45.552Z,16.00
2017-12-05T16:38:13.841Z,15.90
2017-12-05T16:40:42.108Z,15.43
2017-12-05T16:43:10.424Z,12.40
2017-12-05T16:45:39.461Z,10.33
2017-12-05T16:48:08.035Z,9.03
2017-12-05T16:50:37.065Z,11.60
2017-12-05T16:53:05.376Z,11.90
2017-12-05T16:55:33.671Z,13.60
2017-12-05T16:58:01.981Z,10.63
2017-12-05T17:00:30.297Z,14.40
2017-12-05T17:02:58.574Z,13.00
2017-12-05T17:05:27.275Z,14.80
2017-12-05T17:07:55.561Z,15.73
2017-12-05T17:10:24.606Z,12.17
2017-12-05T17:12:53.206Z,14.37
2017-12-05T17:15:21.483Z,15.60
2017-12-05T17:17:49.940Z,13.10
2017-12-05T17:20:18.961Z,17.70
2017-12-05T17:22:47.613Z,9.57
2017-12-05T17:25:15.891Z,11.97
2017-12-05T17:27:44.187Z,13.17
2017-12-05T17:30:12.475Z,13.03
2017-12-05T17:32:40.756Z,15.93
2017-12-05T17:35:09.099Z,14.50
2017-12-05T17:37:37.401Z,19.60
2017-12-05T17:40:06.010Z,17.17
2017-12-05T17:42:51.181Z,12.00
2017-12-05T17:45:20.794Z,13.40
2017-12-05T17:47:49.318Z,12.87
2017-12-05T17:50:18.368Z,14.77
2017-12-05T17:52:46.818Z,15.37
2017-12-05T17:55:15.858Z,18.20
2017-12-05T17:57:44.153Z,14.70
2017-12-05T18:00:12.444Z,16.80
2017-12-05T18:02:41.117Z,14.57
2017-12-05T18:05:10.181Z,18.23
2017-12-05T18:07:38.460Z,16.47
2017-12-05T18:10:06.871Z,17.50
2017-12-05T18:12:35.142Z,15.90
2017-12-05T18:15:03.436Z,15.10
2017-12-05T18:17:32.468Z,17.20
2017-12-05T18:20:01.052Z,15.73
2017-12-05T18:22:29.355Z,16.73
2017-12-05T18:24:57.653Z,13.93
2017-12-05T18:27:25.964Z,13.27
2017-12-05T18:29:54.533Z,11.27
2017-12-05T18:32:22.829Z,15.23
2017-12-05T18:34:51.252Z,12.00
2017-12-05T18:37:19.981Z,13.77
2017-12-05T18:39:49.037Z,16.83
2017-12-05T18:42:17.812Z,14.87
2017-12-05T18:44:46.387Z,12.60
2017-12-05T18:47:14.737Z,12.40
2017-12-05T18:49:43.184Z,11.43
2017-12-05T18:52:11.484Z,14.67
2017-12-05T18:54:40.853Z,15.27
2017-12-05T18:57:09.136Z,15.70
2017-12-05T18:59:37.411Z,15.00
2017-12-05T19:02:05.784Z,13.00
2017-12-05T19:04:34.075Z,14.50
2017-12-05T19:07:03.249Z,13.67
2017-12-05T19:09:31.525Z,16.07
2017-12-05T19:12:00.218Z,15.00
2017-12-05T19:14:28.505Z,13.30
2017-12-05T19:16:56.798Z,19.23
2017-12-05T19:19:25.131Z,14.53
2017-12-05T19:21:53.518Z,13.30
2017-12-05T19:24:21.816Z,10.57
2017-12-05T19:26:50.092Z,14.70
2017-12-05T19:29:18.469Z,12.57
2017-12-05T19:31:46.828Z,12.00
2017-12-05T19:34:15.123Z,15.03
2017-12-05T19:36:43.535Z,13.63
2017-12-05T19:39:12.613Z,16.07
2017-12-05T19:41:41.203Z,15.60
2017-12-05T19:44:09.519Z,13.43
2017-12-05T19:46:38.586Z,14.70
2017-12-05T19:49:07.064Z,13.03
2017-12-05T19:51:36.192Z,17.70
2017-12-05T19:54:04.559Z,12.53
2017-12-05T19:56:33.628Z,15.07
2017-12-05T19:59:02.275Z,14.17
2017-12-05T20:01:30.611Z,15.87
2017-12-05T20:03:58.949Z,16.53
2017-12-05T20:06:27.308Z,13.80
2017-12-05T20:08:55.683Z,17.10
2017-12-05T20:11:24.317Z,14.63
2017-12-05T20:13:52.803Z,15.70
2017-12-05T20:16:21.619Z,16.60
2017-12-05T20:18:49.927Z,14.13
2017-12-05T20:21:18.262Z,15.93
2017-12-05T20:23:46.800Z,14.20
2017-12-05T20:26:15.183Z,14.83
2017-12-05T20:28:43.570Z,12.77
2017-12-05T20:31:11.875Z,16.17
2017-12-05T20:33:41.270Z,15.30
2017-12-05T20:36:09.907Z,13.37
2017-12-05T20:38:38.365Z,16.17
2017-12-05T20:41:07.754Z,17.47
2017-12-05T20:43:36.097Z,21.70
2017-12-05T20:46:04.494Z,20.23
2017-12-05T20:48:32.555Z,15.63
2017-12-05T20:51:01.414Z,18.57
2017-12-05T20:53:29.440Z,17.57
2017-12-05T20:55:57.594Z,16.63
2017-12-05T20:58:25.725Z,15.50
2017-12-05T21:00:54.191Z,21.43
2017-12-05T21:03:22.534Z,19.27
2017-12-05T21:05:50.606Z,16.07
2017-12-05T21:08:18.755Z,21.13
2017-12-05T21:10:46.851Z,19.60
2017-12-05T21:13:15.836Z,18.00
2017-12-05T21:15:43.907Z,15.80
2017-12-05T21:18:12.326Z,23.30
2017-12-05T21:20:40.386Z,24.37
2017-12-05T21:23:08.422Z,18.33
2017-12-05T21:25:37.596Z,18.43
2017-12-05T21:28:06.541Z,17.20
2017-12-05T21:30:34.678Z,17.77
2017-12-05T21:33:02.765Z,15.47
2017-12-05T21:35:31.906Z,18.73
2017-12-05T21:38:00.001Z,18.00
2017-12-05T21:40:28.974Z,16.90
2017-12-05T21:42:57.066Z,15.67
2017-12-05T21:45:25.178Z,18.20
2017-12-05T21:47:54.820Z,16.80
2017-12-05T21:50:22.873Z,16.10
2017-12-05T21:52:50.976Z,16.93
2017-12-05T21:55:19.074Z,16.43
2017-12-05T21:57:47.241Z,14.97
2017-12-05T22:00:15.785Z,16.30
2017-12-05T22:02:44.058Z,17.67
2017-12-05T22:05:12.126Z,17.30
2017-12-05T22:07:40.303Z,18.73
2017-12-05T22:10:08.579Z,21.77
2017-12-05T22:12:36.936Z,20.60
2017-12-05T22:15:05.272Z,18.20
2017-12-05T22:17:33.862Z,17.40
2017-12-05T22:20:02.957Z,19.67
2017-12-05T22:22:31.270Z,18.63
2017-12-05T22:24:59.615Z,16.67
2017-12-05T22:27:28.670Z,14.27
2017-12-05T22:29:57.106Z,12.50
2017-12-05T22:32:26.162Z,16.60
2017-12-05T22:34:54.763Z,15.47
2017-12-05T22:37:23.061Z,16.37
2017-12-05T22:39:51.324Z,14.63
2017-12-05T22:42:19.638Z,12.67
2017-12-05T22:44:47.915Z,14.57
2017-12-05T22:47:16.223Z,17.10
2017-12-05T22:49:44.502Z,15.23
2017-12-05T22:52:13.125Z,13.90
2017-12-05T22:54:41.395Z,16.27
2017-12-05T22:57:09.685Z,13.30
2017-12-05T22:59:39.207Z,15.67
2017-12-05T23:02:07.509Z,16.20
2017-12-05T23:04:35.796Z,12.90
2017-12-05T23:07:04.093Z,15.30
2017-12-05T23:09:32.800Z,18.33
2017-12-05T23:12:01.078Z,13.07
2017-12-05T23:14:29.412Z,16.60
2017-12-05T23:16:57.724Z,15.70
2017-12-05T23:19:26.047Z,16.67
2017-12-05T23:21:54.350Z,14.10
2017-12-05T23:24:22.655Z,13.87
2017-12-05T23:26:51.421Z,14.73
2017-12-05T23:29:19.705Z,15.50
2017-12-05T23:31:48.003Z,15.00
2017-12-05T23:34:16.844Z,14.83
2017-12-05T23:36:45.126Z,18.87
2017-12-05T23:39:13.433Z,11.40
2017-12-05T23:41:41.738Z,18.50
2017-12-05T23:44:10.301Z,16.30
2017-12-05T23:46:38.601Z,14.40
2017-12-05T23:49:06.901Z,14.53
2017-12-05T23:51:35.969Z,16.03
2017-12-05T23:54:04.255Z,16.27
2017-12-05T23:56:32.570Z,17.20
2017-12-05T23:59:00.928Z,15.23
